Time;durP1;ratioP1;P1;durP2;ratioP2;P2;SDS_P1;SDS_P2;PMS_P1;PMS_P2;Temp;Humidity;BMP_temperature;BMP_pressure;BME280_temperature;BME280_humidity;BME280_pressure;Samples;Min_cycle;Max_cycle;Signal;HPM_P1;HPM_P2
2023/06/09 00:00:27;;;;;;;;;25.00;24.75;;;;;25.31;44.77;100441.47;2097481;28;46438;-64
2023/06/09 00:01:30;;;;;;;;;19.75;19.75;;;;;25.31;44.37;100447.78;2098718;28;45745;-65
2023/06/09 00:02:33;;;;;;;;;22.00;20.60;;;;;25.29;44.87;100441.63;2098418;28;46371;-63
2023/06/09 00:03:33;;;;;;;;;22.60;22.60;;;;;25.28;44.86;100439.88;2096356;28;45542;-65
2023/06/09 00:04:35;;;;;;;;;20.75;20.50;;;;;25.25;44.82;100448.28;2096694;28;46563;-64
2023/06/09 00:05:35;;;;;;;;;21.40;21.40;;;;;25.25;44.73;100451.00;2098952;28;46557;-65
2023/06/09 00:06:35;;;;;;;;;24.25;24.25;;;;;25.23;44.87;100445.72;2105481;27;46209;-64
2023/06/09 00:07:36;;;;;;;;;21.50;20.75;;;;;25.22;44.96;100443.13;2108407;27;46410;-65
2023/06/09 00:08:37;;;;;;;;;22.80;21.20;;;;;25.22;44.76;100440.41;2087073;28;46456;-64
2023/06/09 00:09:37;;;;;;;;;22.75;22.25;;;;;25.20;44.94;100447.84;2087714;28;46728;-66
2023/06/09 00:10:37;;;;;;;;;18.25;18.25;;;;;25.19;44.80;100443.41;2099271;28;46353;-64
2023/06/09 00:11:38;;;;;;;;;21.50;21.50;;;;;25.18;45.00;100436.25;2095440;28;46382;-63
2023/06/09 00:12:38;;;;;;;;;24.00;23.00;;;;;25.16;44.81;100430.97;2098886;28;46204;-63
2023/06/09 00:13:39;;;;;;;;;23.00;22.25;;;;;25.15;44.68;100437.38;2096109;28;46063;-64
2023/06/09 00:14:40;;;;;;;;;21.50;21.50;;;;;25.14;45.13;100438.34;2099452;28;46385;-65
2023/06/09 00:15:40;;;;;;;;;20.25;20.25;;;;;25.13;45.26;100433.06;2091968;28;47040;-64
2023/06/09 00:16:45;;;;;;;;;23.75;23.75;;;;;25.11;44.83;100435.91;2080100;28;46598;-64
2023/06/09 00:17:45;;;;;;;;;24.00;24.00;;;;;25.11;44.91;100433.19;2082853;28;45657;-64
2023/06/09 00:18:46;;;;;;;;;22.75;22.75;;;;;25.12;45.49;100432.22;2102551;28;46713;-63
2023/06/09 00:19:47;;;;;;;;;22.75;22.25;;;;;25.11;45.04;100426.91;2081265;28;46458;-65
2023/06/09 00:20:50;;;;;;;;;21.50;21.50;;;;;25.11;44.92;100432.34;2079241;28;46731;-64
2023/06/09 00:21:50;;;;;;;;;24.80;24.40;;;;;25.12;45.10;100428.63;2089033;28;46041;-65
2023/06/09 00:22:55;;;;;;;;;24.75;24.75;;;;;25.11;45.26;100430.50;2090731;28;46859;-62
2023/06/09 00:23:58;;;;;;;;;22.80;22.00;;;;;25.12;45.61;100436.78;2090341;28;46610;-63
2023/06/09 00:24:58;;;;;;;;;26.40;25.60;;;;;25.11;45.06;100433.19;2087348;28;46342;-64
2023/06/09 00:25:59;;;;;;;;;24.75;24.25;;;;;25.11;45.61;100430.50;2092853;28;46279;-64
2023/06/09 00:26:59;;;;;;;;;25.75;23.75;;;;;25.10;44.97;100423.34;2087068;28;46355;-65
2023/06/09 00:27:59;;;;;;;;;26.00;25.75;;;;;25.12;45.51;100426.78;2092847;28;45842;-65
2023/06/09 00:29:00;;;;;;;;;26.75;25.75;;;;;25.12;45.47;100424.06;2090320;28;46018;-63
2023/06/09 00:30:00;;;;;;;;;24.50;23.25;;;;;25.12;45.26;100428.63;2094369;28;46930;-63
2023/06/09 00:31:00;;;;;;;;;21.75;21.25;;;;;25.11;45.60;100424.19;2102168;28;46272;-65
2023/06/09 00:32:01;;;;;;;;;24.25;24.25;;;;;25.09;45.59;100421.63;2100497;28;46375;-64
2023/06/09 00:33:01;;;;;;;;;20.00;19.25;;;;;25.10;45.83;100425.19;2089329;28;46955;-63
2023/06/09 00:34:02;;;;;;;;;23.00;22.00;;;;;25.09;45.19;100424.34;2090471;28;46718;-64
2023/06/09 00:35:03;;;;;;;;;24.75;24.25;;;;;25.08;45.55;100424.47;2093439;28;46861;-65
2023/06/09 00:36:03;;;;;;;;;24.40;24.40;;;;;25.07;45.43;100422.75;2098074;28;46405;-64
2023/06/09 00:37:05;;;;;;;;;26.50;24.25;;;;;25.07;45.53;100422.75;2098687;28;46746;-64
2023/06/09 00:38:05;;;;;;;;;26.20;26.20;;;;;25.04;45.49;100420.31;2088601;28;45065;-64
2023/06/09 00:39:05;;;;;;;;;25.25;25.25;;;;;25.02;45.79;100425.84;2096338;28;46512;-64
2023/06/09 00:40:07;;;;;;;;;22.25;22.25;;;;;25.00;45.96;100421.53;2095398;28;46095;-65
2023/06/09 00:41:07;;;;;;;;;21.80;21.20;;;;;24.99;45.43;100423.38;2099608;28;46479;-63
2023/06/09 00:42:08;;;;;;;;;22.00;22.00;;;;;24.99;45.66;100411.66;2091516;28;46297;-64
2023/06/09 00:43:08;;;;;;;;;21.75;21.75;;;;;24.99;45.76;100420.66;2088573;28;46334;-64
2023/06/09 00:44:08;;;;;;;;;21.00;21.00;;;;;24.99;45.63;100414.38;2083316;28;46462;-64
2023/06/09 00:45:09;;;;;;;;;24.75;24.00;;;;;24.98;45.53;100416.22;2085759;28;46706;-64
2023/06/09 00:46:09;;;;;;;;;26.75;26.50;;;;;24.98;45.70;100412.66;2092424;28;47076;-64
2023/06/09 00:47:10;;;;;;;;;25.00;24.75;;;;;24.98;45.95;100410.78;2095672;28;47230;-64
2023/06/09 00:48:11;;;;;;;;;24.80;23.60;;;;;24.97;45.49;100413.66;2095810;28;46518;-64
2023/06/09 00:49:12;;;;;;;;;23.40;22.20;;;;;24.96;45.78;100415.50;2096973;28;46388;-65
2023/06/09 00:50:15;;;;;;;;;20.75;20.75;;;;;24.95;45.78;100409.22;2097007;28;46690;-63
2023/06/09 00:51:16;;;;;;;;;25.40;25.20;;;;;24.94;45.86;100410.22;2099122;28;46875;-65
2023/06/09 00:52:18;;;;;;;;;25.80;24.60;;;;;24.94;45.84;100402.06;2088474;28;45689;-63
2023/06/09 00:53:18;;;;;;;;;24.60;23.80;;;;;24.94;45.63;100403.91;2084428;28;46947;-65
2023/06/09 00:54:20;;;;;;;;;27.00;26.50;;;;;24.93;45.81;100403.06;2096119;28;46620;-64
2023/06/09 00:55:21;;;;;;;;;26.00;26.00;;;;;24.95;45.61;100403.78;2091101;28;46759;-64
2023/06/09 00:56:23;;;;;;;;;27.20;26.40;;;;;24.96;45.98;100404.63;2096057;28;47028;-63
2023/06/09 00:57:24;;;;;;;;;23.60;23.60;;;;;24.96;45.78;100399.22;2095174;28;45081;-64
2023/06/09 00:58:24;;;;;;;;;26.50;26.50;;;;;24.95;45.81;100401.06;2096585;28;46521;-63
2023/06/09 00:59:25;;;;;;;;;23.75;23.25;;;;;24.95;45.99;100402.94;2098281;28;46548;-64
2023/06/09 01:00:28;;;;;;;;;23.80;23.80;;;;;24.94;45.92;100404.78;2094028;28;46525;-63
2023/06/09 01:01:28;;;;;;;;;25.60;23.60;;;;;24.94;45.77;100409.34;2096700;28;46758;-63
2023/06/09 01:02:29;;;;;;;;;24.50;23.50;;;;;24.93;46.02;100400.34;2098480;28;45764;-64
2023/06/09 01:03:32;;;;;;;;;21.00;21.00;;;;;24.93;45.71;100403.06;2099390;28;46197;-64
2023/06/09 01:04:35;;;;;;;;;22.60;22.60;;;;;24.93;45.64;100404.91;2097478;28;46704;-64
2023/06/09 01:05:37;;;;;;;;;23.40;23.40;;;;;24.92;46.08;100409.47;2091850;28;46759;-64
2023/06/09 01:06:56;;;;;;;;;27.20;24.60;;;;;24.89;45.63;100403.44;2093904;28;46909;-63
2023/06/09 01:08:11;;;;;;;;;27.60;25.40;;;;;24.87;45.78;100400.84;2088991;28;46597;-64
2023/06/09 01:09:24;;;;;;;;;27.00;25.60;;;;;24.84;46.22;100398.41;2090057;28;46392;-64
2023/06/09 01:10:51;;;;;;;;;25.20;23.40;;;;;24.80;46.30;100402.41;2089324;28;46409;-64
2023/06/09 01:12:16;;;;;;;;;24.80;23.40;;;;;24.79;46.20;100397.97;2070256;28;46582;-66
2023/06/09 01:13:35;;;;;;;;;25.80;24.80;;;;;24.78;46.04;100390.81;2074251;28;46530;-63
2023/06/09 01:14:53;;;;;;;;;21.60;19.60;;;;;24.79;46.23;100394.41;2073335;28;45940;-63
2023/06/09 01:16:01;;;;;;;;;25.20;23.60;;;;;24.77;45.76;100396.34;2073781;28;46352;-64
2023/06/09 01:17:08;;;;;;;;;26.80;26.80;;;;;24.77;46.41;100388.22;2071712;28;46205;-64
2023/06/09 01:18:13;;;;;;;;;27.20;26.20;;;;;24.77;45.97;100391.78;2072667;28;46854;-65
2023/06/09 01:19:31;;;;;;;;;27.20;26.80;;;;;24.77;46.65;100393.63;2073098;28;46860;-63
2023/06/09 01:20:46;;;;;;;;;27.20;27.20;;;;;24.76;46.00;100390.06;2070351;28;46701;-65
2023/06/09 01:21:50;;;;;;;;;27.60;25.00;;;;;24.76;46.06;100383.78;2066843;28;46607;-64
2023/06/09 01:22:57;;;;;;;;;22.60;22.60;;;;;24.76;46.10;100384.63;2071524;28;46981;-65
2023/06/09 01:24:14;;;;;;;;;27.00;26.20;;;;;24.74;46.26;100381.19;2071110;28;46474;-64
2023/06/09 01:25:34;;;;;;;;;27.00;25.60;;;;;24.75;46.52;100388.34;2070251;28;45386;-64
2023/06/09 01:26:38;;;;;;;;;26.40;26.40;;;;;24.74;46.57;100383.06;2070611;28;45670;-65
2023/06/09 01:27:44;;;;;;;;;27.00;26.60;;;;;24.73;46.66;100390.34;2069871;28;46094;-64
2023/06/09 01:28:47;;;;;;;;;30.60;27.80;;;;;24.71;46.52;100388.75;2070823;28;46171;-64
2023/06/09 01:29:48;;;;;;;;;27.00;25.40;;;;;24.71;46.87;100388.75;2057577;28;46257;-64
2023/06/09 01:30:51;;;;;;;;;25.60;22.80;;;;;24.69;46.36;100390.75;2057247;28;46743;-64
2023/06/09 01:31:52;;;;;;;;;25.80;24.40;;;;;24.66;46.59;100381.03;2074311;28;46418;-64
2023/06/09 01:32:53;;;;;;;;;27.20;25.60;;;;;24.67;46.61;100379.16;2074006;28;46219;-64
2023/06/09 01:33:54;;;;;;;;;26.00;26.00;;;;;24.65;46.80;100376.59;2072895;28;46537;-64
2023/06/09 01:34:54;;;;;;;;;26.25;25.25;;;;;24.65;46.53;100376.59;2070569;28;47110;-65
2023/06/09 01:35:56;;;;;;;;;27.00;26.50;;;;;24.64;46.68;100380.25;2070731;28;46260;-64
2023/06/09 01:36:57;;;;;;;;;21.40;20.00;;;;;24.65;46.45;100379.31;2070974;28;46536;-65
2023/06/09 01:38:00;;;;;;;;;26.80;25.40;;;;;24.63;46.79;100382.13;2071560;28;46706;-64
2023/06/09 01:39:00;;;;;;;;;30.60;28.40;;;;;24.62;46.96;100377.69;2067846;28;46326;-64
2023/06/09 01:40:01;;;;;;;;;27.25;26.25;;;;;24.60;46.67;100381.53;2070009;28;46297;-63
2023/06/09 01:41:01;;;;;;;;;25.75;25.75;;;;;24.58;47.03;100378.09;2071505;28;45517;-64
2023/06/09 01:42:02;;;;;;;;;25.75;25.25;;;;;24.57;46.97;100376.38;2070959;28;46488;-64
2023/06/09 01:43:05;;;;;;;;;28.50;27.75;;;;;24.55;46.99;100376.50;2063152;28;46119;-64
2023/06/09 01:44:05;;;;;;;;;27.40;27.00;;;;;24.55;46.72;100372.94;2063654;28;47176;-64
2023/06/09 01:45:06;;;;;;;;;25.25;25.00;;;;;24.55;46.78;100376.50;2069274;28;46567;-64
2023/06/09 01:46:06;;;;;;;;;28.25;27.25;;;;;24.54;46.85;100371.22;2057303;28;46251;-64
2023/06/09 01:47:07;;;;;;;;;24.75;24.75;;;;;24.53;46.90;100374.91;2054021;28;46225;-63
2023/06/09 01:48:31;;;;;;;;;26.75;24.75;;;;;24.54;46.88;100373.94;2070362;28;46354;-63
2023/06/09 01:49:53;;;;;;;;;26.60;26.00;;;;;24.53;46.92;100369.50;2079589;28;46593;-64
2023/06/09 01:51:03;;;;;;;;;29.60;26.80;;;;;24.52;46.85;100378.59;2090517;28;47371;-63
2023/06/09 01:52:21;;;;;;;;;30.00;28.40;;;;;24.51;46.70;100375.03;2088583;28;46410;-64
2023/06/09 01:53:37;;;;;;;;;25.00;24.40;;;;;24.48;47.23;100367.16;2094378;28;47597;-63
2023/06/09 01:54:43;;;;;;;;;25.00;25.00;;;;;24.47;46.96;100368.16;2088805;28;45711;-63
2023/06/09 01:55:52;;;;;;;;;26.80;25.00;;;;;24.46;47.23;100369.16;2088152;28;46248;-64
2023/06/09 01:56:59;;;;;;;;;23.80;23.80;;;;;24.45;46.92;100363.84;2083577;28;47238;-63
2023/06/09 01:58:22;;;;;;;;;29.80;28.80;;;;;24.43;47.13;100364.00;2093261;28;46237;-64
2023/06/09 01:59:26;;;;;;;;;27.80;27.00;;;;;24.42;47.17;100366.84;2090783;28;47627;-65
2023/06/09 02:00:28;;;;;;;;;23.80;23.20;;;;;24.41;47.04;100362.41;2089350;28;46613;-64
2023/06/09 02:01:31;;;;;;;;;23.40;23.00;;;;;24.39;46.80;100367.06;2089525;28;46494;-63
2023/06/09 02:02:34;;;;;;;;;26.00;24.00;;;;;24.38;47.59;100359.94;2088991;28;46994;-63
2023/06/09 02:03:38;;;;;;;;;26.40;23.40;;;;;24.36;47.41;100363.63;2093906;28;46458;-64
2023/06/09 02:04:42;;;;;;;;;26.00;26.00;;;;;24.35;47.37;100378.19;2090079;28;46110;-64
2023/06/09 02:05:43;;;;;;;;;21.20;21.00;;;;;24.34;47.24;100360.19;2089881;28;46674;-63
2023/06/09 02:06:44;;;;;;;;;26.20;25.60;;;;;24.33;47.25;100365.75;2088245;28;46395;-64
2023/06/09 02:07:45;;;;;;;;;24.80;23.80;;;;;24.34;47.33;100362.03;2091346;28;46247;-64
2023/06/09 02:08:46;;;;;;;;;27.60;27.00;;;;;24.33;47.60;100357.63;2088091;28;45916;-64
2023/06/09 02:09:47;;;;;;;;;25.75;24.00;;;;;24.31;47.30;100360.47;2091251;28;47388;-62
2023/06/09 02:10:48;;;;;;;;;23.25;22.00;;;;;24.31;47.12;100365.03;2088182;28;46717;-65
2023/06/09 02:11:52;;;;;;;;;21.60;21.40;;;;;24.30;47.22;100368.72;2084244;28;46521;-64
2023/06/09 02:12:52;;;;;;;;;27.00;26.00;;;;;24.29;47.37;100365.13;2091441;28;46717;-63
2023/06/09 02:13:54;;;;;;;;;26.50;26.50;;;;;24.29;47.45;100367.84;2088840;28;46788;-64
2023/06/09 02:14:54;;;;;;;;;25.20;24.20;;;;;24.29;47.60;100365.13;2087225;28;46432;-64
2023/06/09 02:15:55;;;;;;;;;24.75;24.00;;;;;24.29;47.23;100362.41;2089855;28;46407;-64
2023/06/09 02:16:55;;;;;;;;;25.50;23.75;;;;;24.28;47.38;100363.41;2089563;28;46835;-64
2023/06/09 02:17:56;;;;;;;;;24.25;24.25;;;;;24.26;47.52;100362.66;2089311;28;46860;-64
2023/06/09 02:18:57;;;;;;;;;15.00;15.00;;;;;24.26;47.48;100354.50;2104334;27;46248;-62
2023/06/09 02:19:57;;;;;;;;;24.40;24.40;;;;;24.27;47.60;100358.97;2098323;28;46428;-64
2023/06/09 02:20:58;;;;;;;;;23.75;23.00;;;;;24.27;47.47;100360.84;2088191;28;46910;-63
2023/06/09 02:21:59;;;;;;;;;25.25;24.75;;;;;24.26;47.30;100357.22;2087975;28;46310;-63
2023/06/09 02:22:59;;;;;;;;;28.00;26.50;;;;;24.25;47.53;100360.94;2087094;28;46213;-65
2023/06/09 02:24:00;;;;;;;;;27.75;27.25;;;;;24.25;47.73;100352.78;2090106;28;45681;-63
2023/06/09 02:25:00;;;;;;;;;30.75;27.75;;;;;24.24;47.83;100359.22;2086800;28;46885;-63
2023/06/09 02:26:01;;;;;;;;;23.75;23.75;;;;;24.24;47.67;100361.91;2090819;28;46408;-63
2023/06/09 02:27:03;;;;;;;;;25.75;25.00;;;;;24.24;47.19;100359.22;2086791;28;46610;-66
2023/06/09 02:28:05;;;;;;;;;25.00;24.40;;;;;24.24;47.40;100358.34;2085229;28;46300;-63
2023/06/09 02:29:05;;;;;;;;;24.60;24.60;;;;;24.22;47.66;100355.78;2087725;28;46543;-64
2023/06/09 02:30:07;;;;;;;;;22.00;22.00;;;;;24.22;47.67;100350.34;2090412;28;46843;-64
2023/06/09 02:31:08;;;;;;;;;23.40;23.40;;;;;24.23;47.46;100343.94;2094900;28;46410;-64
2023/06/09 02:32:08;;;;;;;;;21.50;21.50;;;;;24.22;47.75;100344.94;2089835;28;45938;-64
2023/06/09 02:33:10;;;;;;;;;23.00;23.00;;;;;24.21;47.30;100339.63;2089417;28;46615;-62
2023/06/09 02:34:10;;;;;;;;;23.40;22.40;;;;;24.20;47.54;100346.91;2089434;28;47003;-64
2023/06/09 02:35:11;;;;;;;;;21.50;21.25;;;;;24.19;47.48;100339.78;2088047;28;46399;-64
2023/06/09 02:36:12;;;;;;;;;22.50;22.50;;;;;24.18;47.70;100335.34;2088275;28;46166;-63
2023/06/09 02:37:13;;;;;;;;;23.00;23.00;;;;;24.18;47.66;100338.06;2089311;28;46903;-63
2023/06/09 02:38:13;;;;;;;;;23.75;23.75;;;;;24.18;47.83;100334.47;2087349;28;46266;-64
2023/06/09 02:39:14;;;;;;;;;25.00;24.00;;;;;24.17;47.66;100339.03;2088014;28;46677;-65
2023/06/09 02:40:15;;;;;;;;;22.60;22.60;;;;;24.18;47.74;100342.63;2087312;28;46431;-62
2023/06/09 02:41:15;;;;;;;;;23.75;23.75;;;;;24.18;47.76;100338.06;2088316;28;46614;-64
2023/06/09 02:42:16;;;;;;;;;24.00;24.00;;;;;24.19;47.56;100338.91;2087293;28;46579;-64
2023/06/09 02:43:16;;;;;;;;;22.00;22.00;;;;;24.20;47.71;100337.91;2094118;28;46243;-64
2023/06/09 02:44:16;;;;;;;;;25.75;25.00;;;;;24.20;47.61;100333.34;2087833;28;45463;-64
2023/06/09 02:45:17;;;;;;;;;22.50;22.00;;;;;24.19;47.54;100337.06;2091724;28;46562;-64
2023/06/09 02:46:17;;;;;;;;;21.00;21.00;;;;;24.20;47.82;100332.50;2087422;28;45109;-64
2023/06/09 02:47:17;;;;;;;;;25.25;24.75;;;;;24.19;47.42;100336.19;2088694;28;46484;-64
2023/06/09 02:48:18;;;;;;;;;24.00;24.00;;;;;24.16;47.26;100331.91;2090373;28;45856;-64
2023/06/09 02:49:18;;;;;;;;;29.00;27.75;;;;;24.16;47.82;100331.03;2091593;28;46914;-65
2023/06/09 02:50:19;;;;;;;;;25.75;25.75;;;;;24.15;47.67;100337.47;2092636;28;46589;-61
2023/06/09 02:51:19;;;;;;;;;26.75;26.25;;;;;24.14;48.08;100333.88;2094762;28;46547;-63
2023/06/09 02:52:20;;;;;;;;;28.75;25.75;;;;;24.13;47.83;100334.00;2088401;28;46707;-64
2023/06/09 02:53:21;;;;;;;;;24.40;23.80;;;;;24.12;47.42;100335.84;2093356;28;46622;-64
2023/06/09 02:54:21;;;;;;;;;23.75;23.50;;;;;24.11;47.78;100336.84;2093105;28;46532;-65
2023/06/09 02:55:22;;;;;;;;;26.00;25.50;;;;;24.10;47.93;100331.53;2088373;28;46377;-64
2023/06/09 02:56:22;;;;;;;;;25.50;24.50;;;;;24.11;48.00;100334.13;2090172;28;46268;-64
2023/06/09 02:57:24;;;;;;;;;23.25;23.25;;;;;24.10;47.93;100329.69;2091623;28;46530;-65
2023/06/09 02:58:24;;;;;;;;;23.20;22.20;;;;;24.10;48.04;100323.41;2092362;28;46678;-64
2023/06/09 02:59:25;;;;;;;;;25.00;24.50;;;;;24.08;47.86;100331.69;2091044;28;46402;-64
2023/06/09 03:00:25;;;;;;;;;26.75;26.75;;;;;24.08;47.99;100334.38;2094438;28;46265;-66
2023/06/09 03:01:27;;;;;;;;;18.50;18.50;;;;;24.08;47.92;100337.97;2090333;28;46509;-64
2023/06/09 03:02:28;;;;;;;;;32.20;30.20;;;;;24.08;48.27;100331.69;2073226;28;46751;-64
2023/06/09 03:03:31;;;;;;;;;25.50;25.50;;;;;24.07;47.98;100330.81;2071291;28;46146;-63
2023/06/09 03:04:34;;;;;;;;;29.40;28.00;;;;;24.06;47.80;100331.81;2089757;28;47819;-64
2023/06/09 03:05:40;;;;;;;;;28.80;27.80;;;;;24.05;48.06;100331.94;2090642;28;46609;-64
2023/06/09 03:06:43;;;;;;;;;25.00;24.40;;;;;24.03;48.44;100337.50;2081200;28;46544;-64
2023/06/09 03:07:43;;;;;;;;;27.00;25.20;;;;;24.02;48.19;100333.06;2083972;28;46420;-64
2023/06/09 03:08:43;;;;;;;;;24.50;24.00;;;;;24.01;47.99;100327.75;2078969;28;46339;-64
2023/06/09 03:09:44;;;;;;;;;26.00;26.00;;;;;24.02;47.91;100334.91;2079651;28;46203;-64
2023/06/09 03:10:44;;;;;;;;;23.00;22.75;;;;;24.01;48.02;100336.78;2079485;28;46245;-65
2023/06/09 03:11:45;;;;;;;;;23.75;23.75;;;;;24.01;48.00;100341.28;2080266;28;45782;-63
2023/06/09 03:12:46;;;;;;;;;25.00;25.00;;;;;24.01;47.98;100334.06;2079630;28;46730;-64
2023/06/09 03:13:46;;;;;;;;;25.00;24.50;;;;;23.99;47.83;100337.88;2079428;28;46663;-64
2023/06/09 03:14:46;;;;;;;;;21.75;21.75;;;;;24.00;48.06;100334.16;2076677;28;46991;-64
2023/06/09 03:15:47;;;;;;;;;23.50;23.50;;;;;23.99;47.90;100332.44;2077460;28;46633;-64
2023/06/09 03:16:47;;;;;;;;;25.75;25.00;;;;;23.98;48.06;100337.00;2078604;28;47225;-65
2023/06/09 03:17:48;;;;;;;;;23.50;23.50;;;;;23.96;48.16;100330.84;2079389;28;46333;-65
2023/06/09 03:18:48;;;;;;;;;24.25;23.25;;;;;23.96;48.42;100332.72;2079194;28;46844;-65
2023/06/09 03:19:49;;;;;;;;;23.00;23.00;;;;;23.97;48.34;100337.13;2077636;28;46882;-64
2023/06/09 03:20:50;;;;;;;;;27.75;25.50;;;;;23.96;48.02;100341.69;2079659;28;46933;-66
2023/06/09 03:21:57;;;;;;;;;23.40;20.20;;;;;23.95;48.38;100339.13;2079652;28;46502;-65
2023/06/09 03:22:58;;;;;;;;;26.00;25.60;;;;;23.94;48.18;100342.81;2079807;28;46368;-64
2023/06/09 03:23:58;;;;;;;;;24.00;23.75;;;;;23.92;48.29;100337.53;2080399;28;47117;-65
2023/06/09 03:24:58;;;;;;;;;25.75;25.75;;;;;23.90;48.19;100334.09;2080295;28;46958;-64
2023/06/09 03:25:59;;;;;;;;;28.25;27.25;;;;;23.90;48.08;100336.81;2072333;28;46759;-65
2023/06/09 03:27:00;;;;;;;;;23.20;22.80;;;;;23.89;48.04;100336.94;2073278;28;46643;-64
2023/06/09 03:28:00;;;;;;;;;25.00;23.75;;;;;23.88;48.29;100344.16;2070779;28;46559;-63
2023/06/09 03:29:01;;;;;;;;;26.50;26.50;;;;;23.87;48.00;100338.88;2079933;28;46452;-68
2023/06/09 03:30:01;;;;;;;;;27.00;24.75;;;;;23.87;48.27;100342.44;2077807;28;45945;-65
2023/06/09 03:31:02;;;;;;;;;24.25;24.25;;;;;23.88;48.25;100338.75;2079267;28;46991;-63
2023/06/09 03:32:03;;;;;;;;;20.00;20.00;;;;;23.88;48.11;100341.47;2079794;28;45629;-64
2023/06/09 03:33:03;;;;;;;;;24.75;24.75;;;;;23.87;48.66;100341.59;2079324;28;45767;-65
2023/06/09 03:34:04;;;;;;;;;28.50;26.25;;;;;23.86;48.41;100340.72;2079405;28;46801;-64
2023/06/09 03:35:04;;;;;;;;;24.25;22.50;;;;;23.85;48.16;100336.31;2078608;28;45501;-64
2023/06/09 03:36:05;;;;;;;;;26.50;26.00;;;;;23.84;48.19;100337.28;2079960;28;46229;-65
2023/06/09 03:37:09;;;;;;;;;22.00;22.00;;;;;23.84;48.77;100340.00;2078952;28;46298;-65
2023/06/09 03:38:09;;;;;;;;;23.20;23.20;;;;;23.83;48.47;100342.84;2079268;28;47369;-63
2023/06/09 03:39:09;;;;;;;;;22.75;22.75;;;;;23.83;48.46;100340.13;2079323;28;46537;-64
2023/06/09 03:40:10;;;;;;;;;22.75;22.75;;;;;23.82;48.23;100338.41;2081053;28;46584;-66
2023/06/09 03:41:11;;;;;;;;;24.00;24.00;;;;;23.82;48.49;100338.41;2088678;28;46447;-63
2023/06/09 03:42:11;;;;;;;;;26.75;23.00;;;;;23.80;48.22;100335.84;2089243;28;46355;-64
2023/06/09 03:43:11;;;;;;;;;24.75;24.25;;;;;23.80;48.63;100332.28;2092342;28;46497;-65
2023/06/09 03:44:12;;;;;;;;;26.25;24.50;;;;;23.79;48.56;100331.41;2090115;28;46317;-65
2023/06/09 03:45:12;;;;;;;;;26.50;25.50;;;;;23.78;48.56;100332.41;2087075;28;45815;-64
2023/06/09 03:46:13;;;;;;;;;22.50;22.25;;;;;23.76;48.64;100335.25;2091863;28;46384;-63
2023/06/09 03:47:14;;;;;;;;;26.00;24.00;;;;;23.75;48.76;100336.19;2079529;28;46472;-63
2023/06/09 03:48:14;;;;;;;;;24.25;23.00;;;;;23.76;48.63;100331.66;2091577;28;46580;-63
2023/06/09 03:49:14;;;;;;;;;21.25;21.25;;;;;23.75;48.45;100332.63;2081025;28;46487;-63
2023/06/09 03:50:15;;;;;;;;;24.25;24.25;;;;;23.76;48.54;100331.66;2081577;28;46602;-64
2023/06/09 03:51:16;;;;;;;;;23.25;23.25;;;;;23.76;48.49;100331.66;2090582;28;47183;-63
2023/06/09 03:52:16;;;;;;;;;24.40;21.40;;;;;23.76;48.48;100342.50;2087673;28;45441;-64
2023/06/09 03:53:16;;;;;;;;;26.75;24.75;;;;;23.76;48.79;100342.50;2089828;28;46622;-64
2023/06/09 03:54:17;;;;;;;;;23.50;23.50;;;;;23.76;48.86;100340.66;2089784;28;46713;-63
2023/06/09 03:55:22;;;;;;;;;26.75;26.50;;;;;23.77;48.84;100336.09;2088005;28;46666;-63
2023/06/09 03:56:22;;;;;;;;;25.80;24.60;;;;;23.76;48.32;100337.94;2087473;28;45328;-64
2023/06/09 03:57:22;;;;;;;;;28.00;24.75;;;;;23.77;48.79;100334.25;2088708;28;46762;-62
2023/06/09 03:58:23;;;;;;;;;27.25;26.00;;;;;23.78;48.72;100335.09;2096916;28;46114;-64
2023/06/09 03:59:23;;;;;;;;;25.50;25.50;;;;;23.79;48.73;100328.69;2093053;28;46469;-64
2023/06/09 04:00:24;;;;;;;;;25.00;25.00;;;;;23.81;48.76;100331.28;2092390;28;45924;-63
2023/06/09 04:01:25;;;;;;;;;27.00;23.75;;;;;23.81;48.64;100337.56;2086718;28;46897;-64
2023/06/09 04:02:25;;;;;;;;;24.20;23.00;;;;;23.82;48.67;100335.72;2088077;28;46851;-63
2023/06/09 04:03:26;;;;;;;;;21.50;21.50;;;;;23.83;48.53;100332.00;2089914;28;46264;-62
2023/06/09 04:04:26;;;;;;;;;32.50;29.25;;;;;23.84;48.39;100336.44;2093913;28;45941;-63
2023/06/09 04:05:26;;;;;;;;;28.25;27.50;;;;;23.83;48.73;100338.28;2089337;28;45475;-63
2023/06/09 04:06:28;;;;;;;;;18.00;16.50;;;;;23.83;48.32;100334.72;2093857;28;45859;-64
2023/06/09 04:07:30;;;;;;;;;26.20;26.20;;;;;23.80;48.68;100335.84;2093671;28;47112;-63
2023/06/09 04:08:30;;;;;;;;;24.60;24.60;;;;;23.80;48.59;100338.53;2085618;28;45949;-65
2023/06/09 04:09:32;;;;;;;;;31.00;27.25;;;;;23.80;48.66;100340.41;2091987;28;46328;-63
2023/06/09 04:10:32;;;;;;;;;30.40;29.40;;;;;23.78;48.61;100340.53;2090126;28;46511;-63
2023/06/09 04:11:33;;;;;;;;;28.50;27.50;;;;;23.79;48.46;100339.53;2089427;28;46309;-64
2023/06/09 04:12:33;;;;;;;;;29.75;28.50;;;;;23.78;48.42;100333.25;2092909;28;46233;-63
2023/06/09 04:13:33;;;;;;;;;27.00;26.75;;;;;23.78;48.69;100335.09;2093093;28;46444;-64
2023/06/09 04:14:33;;;;;;;;;29.50;28.00;;;;;23.77;48.58;100334.25;2093515;28;46343;-63
2023/06/09 04:15:34;;;;;;;;;28.25;28.00;;;;;23.77;48.68;100336.97;2090410;28;45504;-65
2023/06/09 04:16:34;;;;;;;;;25.75;25.75;;;;;23.78;48.67;100335.09;2091054;28;46508;-64
2023/06/09 04:17:37;;;;;;;;;25.00;25.00;;;;;23.77;48.47;100339.66;2086378;28;45967;-64
2023/06/09 04:18:37;;;;;;;;;27.80;27.40;;;;;23.76;48.77;100339.78;2081252;28;46315;-63
2023/06/09 04:19:38;;;;;;;;;27.50;27.50;;;;;23.76;48.61;100337.09;2093369;28;46512;-65
2023/06/09 04:20:38;;;;;;;;;25.25;25.00;;;;;23.75;48.16;100330.78;2089721;28;47113;-64
2023/06/09 04:21:38;;;;;;;;;28.75;28.00;;;;;23.76;48.47;100331.66;2090244;28;46419;-65
2023/06/09 04:22:47;;;;;;;;;25.00;25.00;;;;;23.75;48.65;100340.75;2092541;28;46894;-64
2023/06/09 04:23:48;;;;;;;;;24.00;24.00;;;;;23.73;48.65;100332.75;2089776;28;46609;-64
2023/06/09 04:24:48;;;;;;;;;28.75;25.75;;;;;23.73;48.74;100337.31;2087322;28;46765;-65
2023/06/09 04:25:49;;;;;;;;;26.50;26.00;;;;;23.71;48.68;100332.03;2089889;28;47011;-63
2023/06/09 04:26:49;;;;;;;;;29.00;27.60;;;;;23.71;48.67;100337.44;2089428;28;46805;-65
2023/06/09 04:27:50;;;;;;;;;31.00;29.75;;;;;23.71;48.75;100337.44;2088134;28;45161;-64
2023/06/09 04:28:53;;;;;;;;;27.25;24.50;;;;;23.70;48.94;100341.16;2089332;28;45307;-65
2023/06/09 04:29:53;;;;;;;;;30.60;28.40;;;;;23.70;48.70;100332.16;2089208;28;46957;-63
2023/06/09 04:30:57;;;;;;;;;28.25;27.00;;;;;23.69;48.89;100339.44;2093261;28;46751;-64
2023/06/09 04:31:58;;;;;;;;;25.40;25.40;;;;;23.68;48.85;100340.41;2104287;27;46927;-63
2023/06/09 04:32:59;;;;;;;;;27.60;27.20;;;;;23.66;48.70;100342.41;2108197;27;46818;-63
2023/06/09 04:34:09;;;;;;;;;26.50;26.25;;;;;23.66;48.77;100344.25;2085623;28;46719;-64
2023/06/09 04:35:09;;;;;;;;;27.20;26.60;;;;;23.63;48.83;100336.34;2088838;28;46688;-63
2023/06/09 04:36:10;;;;;;;;;29.25;28.25;;;;;23.61;48.99;100344.59;2091493;28;46647;-64
2023/06/09 04:37:12;;;;;;;;;37.25;31.50;;;;;23.60;49.09;100342.88;2088876;28;46585;-64
2023/06/09 04:38:12;;;;;;;;;31.20;28.80;;;;;23.60;48.90;100345.59;2085796;28;46224;-64
2023/06/09 04:39:12;;;;;;;;;46.75;38.00;;;;;23.61;49.06;100349.16;2090184;28;46257;-64
2023/06/09 04:40:14;;;;;;;;;28.25;28.00;;;;;23.60;48.93;100340.19;2089402;28;46580;-63
2023/06/09 04:41:14;;;;;;;;;34.00;30.40;;;;;23.61;48.99;100344.59;2092668;28;45657;-63
2023/06/09 04:42:19;;;;;;;;;31.00;29.00;;;;;23.62;49.01;100346.31;2087696;28;46732;-64
2023/06/09 04:43:19;;;;;;;;;39.80;34.20;;;;;23.60;48.92;100345.59;2094966;28;46703;-63